Home   Weather   USA   Coos Bay   Past weeks
Flag for USA

Past Weather in Coos Bay, Oregon, USA — Yesterday and Last 2 Weeks

Currently: 39 °F. Fog. (Weather station: North Bend Weather Reporting Station, USA). See more current weather

Past Weather in Coos Bay — Graph

°F

Coos Bay Temperature Yesterday

Maximum temperature yesterday: 54 °F (at 4:56 pm)
Minimum temperature yesterday: 37 °F (at 12:10 am)
Average temperature yesterday: 43 °F

High & Low Weather Summary for the Past Weeks

 TemperatureHumidityPressure
High54 °F (Feb 22, 11:56 am)100% (Feb 15, 2:36 am)30.63 "Hg (Feb 15, 2:36 am)
Low35 °F (Feb 28, 6:56 am)57% (Feb 24, 12:56 pm)29.80 "Hg (Feb 15, 2:36 am)
Average46 °F89%30.33 "Hg
* Reported Feb 15 2:36 am — Mar 2 2:56 am, Coos Bay. Weather by CustomWeather, © 2021

Note: Actual official high and low records may vary slightly from our data, if they occured in-between our weather recording intervals... More about our weather records

Coos Bay Weather History for the Previous 24 Hours

Scroll right to see more
 ConditionsComfort  
Time TempWeatherWind HumidityBarometerVisibility
2:56 am
Tue, Mar 2
40 °FFog.No wind97%30.14 "Hg1 mi
2:09 am39 °FFog.3 mph100%30.14 "Hg0 mi
1:42 am39 °FFog.No wind100%30.14 "Hg2 mi
1:17 am41 °FFog.3 mph100%30.14 "Hg3 mi
1:02 am41 °FFog.6 mph100%30.13 "Hg2 mi
12:17 am39 °FPassing clouds.7 mph100%30.14 "Hg7 mi
10:56 pm
Mon, Mar 1
41 °FClear.7 mph96%30.15 "Hg9 mi
9:56 pm41 °FClear.7 mph96%30.14 "Hg7 mi
8:56 pm44 °FClear.3 mph96%30.14 "Hg10 mi
7:56 pm46 °FClear.No wind93%30.12 "Hg10 mi
6:56 pm48 °FClear.No wind86%30.11 "Hg10 mi
5:56 pm52 °FSunny.No wind72%30.10 "Hg10 mi
4:56 pm54 °FSunny.6 mph69%30.09 "Hg10 mi
3:56 pm53 °FSunny.No wind72%30.10 "Hg10 mi
2:56 pm52 °FSunny.5 mph80%30.10 "Hg10 mi
1:56 pm51 °FSunny.6 mph83%30.10 "Hg10 mi
12:56 pm53 °FPassing clouds.7 mph77%30.10 "Hg10 mi
11:56 am50 °FScattered clouds.8 mph83%30.11 "Hg10 mi
11:10 am48 °FScattered clouds.8 mph87%30.12 "Hg10 mi
10:56 am48 °FSunny.7 mph89%30.11 "Hg9 mi
9:56 am45 °FScattered clouds.No wind93%30.09 "Hg10 mi
9:30 am45 °FScattered clouds.No wind93%30.10 "Hg10 mi
8:56 am44 °FLow clouds.3 mph96%30.09 "Hg10 mi
8:37 am45 °FLow clouds.5 mph93%30.10 "Hg10 mi
7:56 am41 °FLow clouds.7 mph100%30.09 "Hg10 mi
7:39 am41 °FLow clouds.8 mph93%30.10 "Hg10 mi
7:06 am39 °FFog.8 mph100%30.09 "Hg1 mi
6:56 am40 °FFog.9 mph97%30.09 "Hg4 mi
6:25 am39 °FPassing clouds.7 mph100%30.09 "Hg10 mi
5:56 am39 °FPassing clouds.7 mph96%30.09 "Hg10 mi
5:21 am37 °FPassing clouds.7 mph100%30.10 "Hg10 mi
4:56 am39 °FPassing clouds.7 mph96%30.09 "Hg10 mi
4:11 am39 °FFog.7 mph100%30.09 "Hg3 mi
Weather by CustomWeather, © 2021

See weather overview